Time;durP1;ratioP1;P1;durP2;ratioP2;P2;SDS_P1;SDS_P2;PMS_P1;PMS_P2;Temp;Humidity;BMP_temperature;BMP_pressure;BME280_temperature;BME280_humidity;BME280_pressure;Samples;Min_cycle;Max_cycle;Signal;HPM_P1;HPM_P2
2023/07/03 00:00:43;;;;;;;0.00;0.00;;;15.30;99.90;;;;;;5127973;28;20016;-89
2023/07/03 00:03:13;;;;;;;0.00;0.00;;;;;;;;;;5126034;28;20019;-88
2023/07/03 00:05:43;;;;;;;0.00;0.00;;;15.20;99.90;;;;;;5122232;27;20264;-88
2023/07/03 00:08:09;;;;;;;0.00;0.00;;;;;;;;;;5119735;28;20041;-88
2023/07/03 00:10:34;;;;;;;0.00;0.00;;;;;;;;;;5125311;28;20028;-88
2023/07/03 00:13:00;;;;;;;0.00;0.00;;;;;;;;;;5127581;28;20010;-87
2023/07/03 00:15:27;;;;;;;0.00;0.00;;;;;;;;;;5125898;28;20035;-87
2023/07/03 00:17:52;;;;;;;0.00;0.00;;;15.10;99.90;;;;;;5121041;28;20453;-88
2023/07/03 00:20:18;;;;;;;0.00;0.00;;;;;;;;;;5123206;28;20027;-88
2023/07/03 00:22:46;;;;;;;0.00;0.00;;;;;;;;;;5128391;28;20016;-88
2023/07/03 00:25:12;;;;;;;0.00;0.00;;;;;;;;;;5126433;28;20004;-88
2023/07/03 00:27:38;;;;;;;0.00;0.00;;;;;;;;;;5125109;28;20027;-89
2023/07/03 00:30:05;;;;;;;0.00;0.00;;;;;;;;;;5125056;28;20473;-88
2023/07/03 00:32:31;;;;;;;0.00;0.00;;;;;;;;;;5127840;28;20035;-88
2023/07/03 00:34:57;;;;;;;0.00;0.00;;;15.30;99.90;;;;;;5148714;22;20595;-89
2023/07/03 00:37:23;;;;;;;0.00;0.00;;;;;;;;;;5086026;28;20036;-90
2023/07/03 00:39:48;;;;;;;0.00;0.00;;;15.40;99.90;;;;;;5086393;28;20025;-89
2023/07/03 00:42:14;;;;;;;0.00;0.00;;;15.40;99.90;;;;;;5089967;28;20021;-90
2023/07/03 00:44:40;;;;;;;0.00;0.00;;;;;;;;;;5077871;28;20053;-91
2023/07/03 00:47:08;;;;;;;0.00;0.00;;;15.40;99.90;;;;;;5067605;28;20025;-90
2023/07/03 00:49:34;;;;;;;0.00;0.00;;;;;;;;;;5065351;28;20025;-90
2023/07/03 00:52:01;;;;;;;0.00;0.00;;;15.40;99.90;;;;;;5067721;28;20513;-89
2023/07/03 00:54:27;;;;;;;0.00;0.00;;;15.30;99.90;;;;;;5067214;28;20107;-91
2023/07/03 00:56:52;;;;;;;0.00;0.00;;;15.30;99.90;;;;;;5068484;28;20078;-90
2023/07/03 00:59:18;;;;;;;0.00;0.00;;;;;;;;;;5065227;28;20013;-90
2023/07/03 01:02:25;;;;;;;0.00;0.00;;;15.30;99.90;;;;;;5066326;28;20036;-90
2023/07/03 01:05:15;;;;;;;0.00;0.00;;;15.30;99.90;;;;;;5002820;28;20572;-90
2023/07/03 01:07:42;;;;;;;0.00;0.00;;;15.30;99.90;;;;;;4997691;28;20036;-90
2023/07/03 01:10:23;;;;;;;0.00;0.00;;;15.30;99.90;;;;;;5043859;28;20506;-88
2023/07/03 01:12:53;;;;;;;0.00;0.00;;;15.30;99.90;;;;;;5067510;28;20036;-90
2023/07/03 01:15:27;;;;;;;0.00;0.00;;;15.40;99.90;;;;;;5064570;28;20029;-90
2023/07/03 01:17:55;;;;;;;0.00;0.00;;;15.40;99.90;;;;;;5068387;28;20087;-89
2023/07/03 01:20:24;;;;;;;0.00;0.00;;;15.40;99.90;;;;;;5063936;28;20479;-90
2023/07/03 01:22:52;;;;;;;0.00;0.00;;;15.50;99.90;;;;;;5065998;28;20020;-90
2023/07/03 01:25:22;;;;;;;0.00;0.00;;;15.50;99.90;;;;;;5068206;28;20538;-91
2023/07/03 01:27:50;;;;;;;0.00;0.00;;;15.50;99.90;;;;;;5068376;28;20032;-91
2023/07/03 01:30:19;;;;;;;0.00;0.00;;;15.50;99.90;;;;;;5063989;28;20047;-89
2023/07/03 01:32:47;;;;;;;0.00;0.00;;;15.50;99.90;;;;;;5071151;28;20029;-90
2023/07/03 01:35:14;;;;;;;0.00;0.00;;;15.60;99.90;;;;;;5063209;28;20032;-90
2023/07/03 01:37:43;;;;;;;0.00;0.00;;;15.70;99.90;;;;;;5064099;28;20025;-89
2023/07/03 01:40:11;;;;;;;0.00;0.00;;;15.60;99.90;;;;;;5065842;28;20016;-89
2023/07/03 01:42:38;;;;;;;0.00;0.00;;;15.60;99.90;;;;;;5071684;28;20120;-89
2023/07/03 01:45:05;;;;;;;0.00;0.00;;;15.60;99.90;;;;;;5066132;28;20105;-90
2023/07/03 01:47:30;;;;;;;0.00;0.00;;;15.60;99.90;;;;;;5068963;28;20451;-89
2023/07/03 01:49:56;;;;;;;0.00;0.00;;;;;;;;;;5066908;28;20036;-90
2023/07/03 01:52:54;;;;;;;0.00;0.00;;;15.60;99.90;;;;;;5069061;28;20028;-90
2023/07/03 01:55:46;;;;;;;0.00;0.00;;;15.50;99.90;;;;;;5057759;28;20427;-90
2023/07/03 01:58:13;;;;;;;0.00;0.00;;;;;;;;;;5069150;28;20479;-90
2023/07/03 02:00:53;;;;;;;0.00;0.00;;;15.60;99.90;;;;;;5071225;28;20048;-90
2023/07/03 02:03:31;;;;;;;0.00;0.00;;;15.50;99.90;;;;;;5068389;28;20029;-90
2023/07/03 02:05:58;;;;;;;0.00;0.00;;;15.40;99.90;;;;;;5071942;28;20585;-90
2023/07/03 02:08:25;;;;;;;0.00;0.00;;;15.30;99.90;;;;;;5070501;28;20036;-89
2023/07/03 02:10:52;;;;;;;0.00;0.00;;;15.30;99.90;;;;;;5066758;28;20070;-90
2023/07/03 02:13:18;;;;;;;0.00;0.00;;;15.30;99.90;;;;;;5068663;28;20460;-90
2023/07/03 02:15:44;;;;;;;0.00;0.00;;;;;;;;;;5070217;28;20079;-89
2023/07/03 02:18:17;;;;;;;0.00;0.00;;;;;;;;;;5068496;28;20103;-90
2023/07/03 02:20:49;;;;;;;0.00;0.00;;;15.20;99.90;;;;;;5069066;28;20040;-90
2023/07/03 02:23:15;;;;;;;0.00;0.00;;;15.20;99.90;;;;;;5070019;28;20072;-90
2023/07/03 02:25:41;;;;;;;0.00;0.00;;;15.20;99.90;;;;;;5072088;28;20024;-91
2023/07/03 02:28:07;;;;;;;0.00;0.00;;;;;;;;;;5063876;28;20067;-89
2023/07/03 02:30:33;;;;;;;0.00;0.00;;;;;;;;;;5061616;28;20116;-90
2023/07/03 02:32:59;;;;;;;0.00;0.00;;;;;;;;;;5063807;28;20037;-89
2023/07/03 02:35:24;;;;;;;0.00;0.00;;;;;;;;;;5068231;28;20414;-89
2023/07/03 02:37:50;;;;;;;0.00;0.00;;;;;;;;;;5067351;28;20500;-90
2023/07/03 02:40:16;;;;;;;0.00;0.00;;;;;;;;;;5067281;28;20070;-89
2023/07/03 02:42:42;;;;;;;0.00;0.00;;;;;;;;;;5071733;28;20483;-89
2023/07/03 02:45:09;;;;;;;0.00;0.00;;;;;;;;;;5069225;28;20099;-89
2023/07/03 02:47:36;;;;;;;0.00;0.00;;;15.10;99.90;;;;;;5061873;28;20063;-90
2023/07/03 02:50:03;;;;;;;0.00;0.00;;;15.10;99.90;;;;;;5063556;28;20097;-91
2023/07/03 02:52:29;;;;;;;0.00;0.00;;;;;;;;;;5070466;28;20024;-90
2023/07/03 02:54:55;;;;;;;0.00;0.00;;;;;;;;;;5062146;28;20564;-90
2023/07/03 02:57:20;;;;;;;0.00;0.00;;;15.10;99.90;;;;;;5068670;28;20514;-90
2023/07/03 02:59:46;;;;;;;0.00;0.00;;;;;;;;;;5075934;28;20112;-90
2023/07/03 03:02:12;;;;;;;0.00;0.00;;;;;;;;;;5066436;28;20032;-90
2023/07/03 03:04:38;;;;;;;0.00;0.00;;;;;;;;;;5063547;28;20086;-89
2023/07/03 03:07:04;;;;;;;0.00;0.00;;;;;;;;;;5062424;28;20424;-88
2023/07/03 03:09:29;;;;;;;0.00;0.00;;;14.90;99.90;;;;;;5058444;28;20395;-89
2023/07/03 03:11:55;;;;;;;0.00;0.00;;;;;;;;;;5062864;28;20029;-90
2023/07/03 03:14:21;;;;;;;0.00;0.00;;;;;;;;;;5060566;28;20049;-90
2023/07/03 03:16:47;;;;;;;0.00;0.00;;;;;;;;;;5060646;28;20506;-89
2023/07/03 03:19:13;;;;;;;0.00;0.00;;;;;;;;;;5060133;28;20025;-90
2023/07/03 03:21:39;;;;;;;0.00;0.00;;;;;;;;;;5059643;28;20025;-89
2023/07/03 03:24:05;;;;;;;0.00;0.00;;;14.80;99.90;;;;;;5061017;28;20016;-90
2023/07/03 03:26:31;;;;;;;0.00;0.00;;;;;;;;;;5066464;28;20074;-91
2023/07/03 03:28:57;;;;;;;0.00;0.00;;;14.80;99.90;;;;;;5062539;28;20033;-90
2023/07/03 03:31:23;;;;;;;0.00;0.00;;;14.70;99.90;;;;;;5062704;28;20021;-90
2023/07/03 03:33:49;;;;;;;0.00;0.00;;;;;;;;;;5067388;28;20044;-90
2023/07/03 03:36:15;;;;;;;0.00;0.00;;;;;;;;;;5066700;28;20480;-89
2023/07/03 03:38:40;;;;;;;0.00;0.00;;;14.70;99.90;;;;;;5069451;28;20029;-90
2023/07/03 03:41:06;;;;;;;0.00;0.00;;;14.70;99.90;;;;;;5067208;28;20204;-89
2023/07/03 03:43:32;;;;;;;0.00;0.00;;;;;;;;;;5071437;28;20032;-90
2023/07/03 03:46:00;;;;;;;0.00;0.00;;;14.70;99.90;;;;;;5070940;28;20060;-90
2023/07/03 03:48:27;;;;;;;0.00;0.00;;;14.70;99.90;;;;;;5058834;28;20079;-90
2023/07/03 03:50:53;;;;;;;0.00;0.00;;;14.70;99.90;;;;;;5066070;28;20028;-90
2023/07/03 03:53:19;;;;;;;0.00;0.00;;;;;;;;;;5072558;28;20047;-89
2023/07/03 03:55:49;;;;;;;0.00;0.00;;;14.70;99.90;;;;;;5067697;28;20029;-90
2023/07/03 03:58:15;;;;;;;;;;;14.80;99.90;;;;;;5068305;28;20074;-89
2023/07/03 04:00:41;;;;;;;0.00;0.00;;;14.80;99.90;;;;;;5067587;28;19904;-90
2023/07/03 04:03:07;;;;;;;0.00;0.00;;;;;;;;;;5073103;28;20120;-90
2023/07/03 04:05:33;;;;;;;0.00;0.00;;;;;;;;;;5072368;28;20036;-89
2023/07/03 04:07:59;;;;;;;0.00;0.00;;;;;;;;;;5064577;28;20033;-89
2023/07/03 04:10:25;;;;;;;0.00;0.00;;;;;;;;;;5068287;28;20029;-90
2023/07/03 04:12:51;;;;;;;0.00;0.00;;;;;;;;;;5064474;28;20123;-90
2023/07/03 04:15:17;;;;;;;0.00;0.00;;;14.80;99.90;;;;;;5061851;28;20031;-90
2023/07/03 04:17:42;;;;;;;0.00;0.00;;;14.90;99.90;;;;;;5067064;28;20399;-90
2023/07/03 04:20:13;;;;;;;0.00;0.00;;;;;;;;;;5076976;28;20024;-89
2023/07/03 04:22:39;;;;;;;0.00;0.00;;;15.00;99.90;;;;;;5064906;28;20446;-90
2023/07/03 04:25:05;;;;;;;0.00;0.00;;;15.00;99.90;;;;;;5061918;28;20104;-90
2023/07/03 04:27:31;;;;;;;0.00;0.00;;;;;;;;;;5060313;28;20096;-90
2023/07/03 04:29:57;;;;;;;0.00;0.00;;;;;;;;;;5068680;28;20029;-90
2023/07/03 04:32:23;;;;;;;0.00;0.00;;;;;;;;;;5061711;28;20080;-90
2023/07/03 04:34:49;;;;;;;0.00;0.00;;;;;;;;;;5072631;28;20441;-89
2023/07/03 04:37:15;;;;;;;0.00;0.00;;;;;;;;;;5073162;28;20139;-91
2023/07/03 04:39:41;;;;;;;0.00;0.00;;;;;;;;;;5074606;28;20024;-91
2023/07/03 04:42:07;;;;;;;0.00;0.00;;;;;;;;;;5061399;28;20029;-90
2023/07/03 04:44:33;;;;;;;0.00;0.00;;;15.10;99.90;;;;;;5060718;28;20119;-89
2023/07/03 04:47:04;;;;;;;0.00;0.00;;;;;;;;;;5066545;28;20564;-90
2023/07/03 04:49:30;;;;;;;0.00;0.00;;;15.00;99.90;;;;;;5063520;28;20503;-89
2023/07/03 04:51:58;;;;;;;0.00;0.00;;;;;;;;;;5057975;28;20067;-90
2023/07/03 04:54:24;;;;;;;0.00;0.00;;;15.10;99.90;;;;;;5057200;28;20029;-89
2023/07/03 04:56:49;;;;;;;0.00;0.00;;;15.10;99.90;;;;;;5057059;28;20079;-89
2023/07/03 04:59:15;;;;;;;0.00;0.00;;;;;;;;;;5073815;28;20448;-89
2023/07/03 05:01:44;;;;;;;0.00;0.00;;;;;;;;;;5072417;28;20025;-89
2023/07/03 05:04:10;;;;;;;0.00;0.00;;;;;;;;;;5065725;28;20021;-89
2023/07/03 05:06:37;;;;;;;0.00;0.00;;;15.30;99.90;;;;;;5066674;28;20029;-89
2023/07/03 05:09:03;;;;;;;0.00;0.00;;;15.30;99.90;;;;;;5071725;28;20051;-90
2023/07/03 05:11:29;;;;;;;0.00;0.00;;;15.30;99.90;;;;;;5073039;28;20402;-89
2023/07/03 05:13:55;;;;;;;0.00;0.00;;;15.40;99.90;;;;;;5074300;28;20093;-90
2023/07/03 05:16:21;;;;;;;0.00;0.00;;;15.50;99.90;;;;;;5075843;28;20543;-90
2023/07/03 05:18:47;;;;;;;0.00;0.00;;;;;;;;;;5075885;28;20024;-90
2023/07/03 05:21:13;;;;;;;0.00;0.00;;;;;;;;;;5074372;28;20025;-90
2023/07/03 05:23:39;;;;;;;0.00;0.00;;;;;;;;;;5076469;28;20021;-90
2023/07/03 05:26:05;;;;;;;0.00;0.00;;;;;;;;;;5075984;28;20031;-89
2023/07/03 05:28:32;;;;;;;0.00;0.00;;;15.40;99.90;;;;;;5073989;28;20020;-89
2023/07/03 05:30:58;;;;;;;0.00;0.00;;;15.30;99.90;;;;;;5068508;28;20082;-90
2023/07/03 05:33:25;;;;;;;0.00;0.00;;;15.50;99.90;;;;;;5059624;28;20476;-90
2023/07/03 05:35:51;;;;;;;0.00;0.00;;;15.60;99.90;;;;;;5058965;28;20037;-90
2023/07/03 05:38:17;;;;;;;0.00;0.00;;;;;;;;;;5059208;28;20046;-90
2023/07/03 05:40:44;;;;;;;0.00;0.00;;;;;;;;;;5057809;28;20396;-90
2023/07/03 05:43:09;;;;;;;0.00;0.00;;;15.60;99.90;;;;;;5059517;28;20021;-91
2023/07/03 05:45:35;;;;;;;0.00;0.00;;;;;;;;;;5062898;28;20027;-89
2023/07/03 05:48:02;;;;;;;0.00;0.00;;;;;;;;;;5076572;28;20047;-90
2023/07/03 05:50:28;;;;;;;0.00;0.00;;;15.80;99.90;;;;;;5076437;28;20451;-89
2023/07/03 05:52:53;;;;;;;0.00;0.00;;;;;;;;;;5063772;28;20029;-89
2023/07/03 05:55:19;;;;;;;0.00;0.00;;;;;;;;;;5058198;28;20407;-89
2023/07/03 05:57:45;;;;;;;0.00;0.00;;;;;;;;;;5057528;28;20046;-88
2023/07/03 06:00:14;;;;;;;0.00;0.00;;;15.80;99.90;;;;;;5058354;28;20025;-89
2023/07/03 06:02:44;;;;;;;0.00;0.00;;;15.90;99.90;;;;;;5065717;28;20163;-91
2023/07/03 06:05:11;;;;;;;0.00;0.00;;;16.00;99.90;;;;;;5060798;28;20035;-89
2023/07/03 06:07:38;;;;;;;0.00;0.00;;;;;;;;;;5070840;28;20048;-89
2023/07/03 06:10:04;;;;;;;0.00;0.00;;;16.00;99.90;;;;;;5067890;28;20475;-90
2023/07/03 06:12:30;;;;;;;0.00;0.00;;;16.20;99.90;;;;;;5057223;28;20041;-89
2023/07/03 06:14:57;;;;;;;0.00;0.00;;;16.10;99.90;;;;;;5057487;28;20031;-88
2023/07/03 06:17:23;;;;;;;0.00;0.00;;;16.30;99.90;;;;;;5068059;28;20024;-90
2023/07/03 06:19:49;;;;;;;0.00;0.00;;;16.30;99.90;;;;;;5076177;28;20024;-89
2023/07/03 06:22:15;;;;;;;0.00;0.00;;;;;;;;;;5085046;28;20035;-90
2023/07/03 06:24:41;;;;;;;0.00;0.00;;;;;;;;;;5078326;28;20032;-90
2023/07/03 06:27:07;;;;;;;0.00;0.00;;;;;;;;;;5054649;28;20025;-90
2023/07/03 06:29:33;;;;;;;0.00;0.00;;;16.20;99.90;;;;;;5054852;28;20025;-90
2023/07/03 06:31:59;;;;;;;0.00;0.00;;;16.20;99.90;;;;;;5056610;28;20032;-91
2023/07/03 06:36:52;;;;;;;0.00;0.00;;;;;;;;;;5071664;28;20052;-86
2023/07/03 06:39:18;;;;;;;0.00;0.00;;;;;;;;;;5075312;28;20391;-88
2023/07/03 06:41:44;;;;;;;0.00;0.00;;;;;;;;;;5091909;28;20024;-89
2023/07/03 06:44:15;;;;;;;0.00;0.00;;;16.40;99.90;;;;;;5056761;28;20499;-87
2023/07/03 06:46:41;;;;;;;0.00;0.00;;;16.30;99.90;;;;;;5055095;28;20032;-87
2023/07/03 06:49:07;;;;;;;0.00;0.00;;;;;;;;;;5055655;28;20029;-89
2023/07/03 06:51:33;;;;;;;0.00;0.00;;;;;;;;;;5091809;28;20036;-87
2023/07/03 06:53:59;;;;;;;0.00;0.00;;;;;;;;;;5073586;28;20035;-87
2023/07/03 06:56:26;;;;;;;0.00;0.00;;;16.20;99.90;;;;;;5059180;28;20543;-87
2023/07/03 06:58:52;;;;;;;0.00;0.00;;;16.30;99.90;;;;;;5077454;28;20155;-87
2023/07/03 07:01:20;;;;;;;0.00;0.00;;;16.30;99.90;;;;;;5071530;28;20062;-87
2023/07/03 07:03:46;;;;;;;0.00;0.00;;;16.40;99.90;;;;;;5073317;28;20027;-86
2023/07/03 07:06:18;;;;;;;0.00;0.00;;;16.60;99.90;;;;;;5072347;28;20028;-86
2023/07/03 07:08:44;;;;;;;0.00;0.00;;;16.50;99.90;;;;;;5073111;28;20386;-90
2023/07/03 07:11:15;;;;;;;0.00;0.00;;;16.40;99.90;;;;;;5071747;28;20134;-87
2023/07/03 07:13:43;;;;;;;0.00;0.00;;;16.40;99.90;;;;;;5090922;28;20093;-88
2023/07/03 07:16:24;;;;;;;0.00;0.00;;;16.30;99.90;;;;;;5071632;28;20087;-87
2023/07/03 07:18:55;;;;;;;0.00;0.00;;;16.20;99.90;;;;;;5090635;28;20024;-88
2023/07/03 07:21:21;;;;;;;0.00;0.00;;;17.30;99.90;;;;;;5071511;28;20070;-87
2023/07/03 07:23:52;;;;;;;0.00;0.00;;;16.30;99.90;;;;;;5072616;28;20043;-88
2023/07/03 07:26:19;;;;;;;0.00;0.00;;;16.20;99.90;;;;;;5056309;28;20021;-88
2023/07/03 07:28:44;;;;;;;0.00;0.00;;;16.30;99.90;;;;;;5055485;28;20230;-88
2023/07/03 07:31:10;;;;;;;0.00;0.00;;;;;;;;;;5069253;28;20013;-87
2023/07/03 07:33:36;;;;;;;0.00;0.00;;;;;;;;;;5073336;28;20016;-87
2023/07/03 07:36:02;;;;;;;0.00;0.00;;;;;;;;;;5094002;28;20035;-87
2023/07/03 07:38:28;;;;;;;0.00;0.00;;;;;;;;;;5094630;28;20382;-87
2023/07/03 07:41:02;;;;;;;0.00;0.00;;;17.00;99.90;;;;;;5075784;28;20390;-87
2023/07/03 07:43:27;;;;;;;0.00;0.00;;;17.10;99.90;;;;;;5075289;28;20031;-87
2023/07/03 07:45:53;;;;;;;0.00;0.00;;;;;;;;;;5075645;28;20024;-89
2023/07/03 07:48:19;;;;;;;0.00;0.00;;;17.40;99.90;;;;;;5074302;28;20033;-87
2023/07/03 07:50:45;;;;;;;0.00;0.00;;;;;;;;;;5075350;28;20046;-88
2023/07/03 07:53:11;;;;;;;0.00;0.00;;;;;;;;;;5067603;28;20025;-90
2023/07/03 07:55:38;;;;;;;0.00;0.00;;;;;;;;;;5059993;28;20070;-88
2023/07/03 07:58:04;;;;;;;0.00;0.00;;;;;;;;;;5060677;28;20024;-88
2023/07/03 08:00:30;;;;;;;0.00;0.00;;;;;;;;;;5069384;28;20021;-89
2023/07/03 08:02:55;;;;;;;0.00;0.00;;;17.80;99.90;;;;;;5075047;28;20027;-86
2023/07/03 08:05:21;;;;;;;0.00;0.00;;;;;;;;;;5091666;28;20021;-88
2023/07/03 08:07:48;;;;;;;0.00;0.00;;;;;;;;;;5074678;28;20070;-87
2023/07/03 08:10:14;;;;;;;0.00;0.00;;;17.90;99.90;;;;;;5090921;28;20385;-88
2023/07/03 08:12:40;;;;;;;0.00;0.00;;;17.90;99.90;;;;;;5074685;28;20027;-87
2023/07/03 08:15:07;;;;;;;0.00;0.00;;;18.00;99.90;;;;;;5073506;28;20028;-89
2023/07/03 08:17:33;;;;;;;0.00;0.00;;;18.20;99.90;;;;;;5092138;28;20474;-87
2023/07/03 08:19:59;;;;;;;0.00;0.00;;;;;;;;;;5073984;28;20141;-89
2023/07/03 08:22:25;;;;;;;0.00;0.00;;;18.70;99.90;;;;;;5072691;28;20125;-88
2023/07/03 08:24:51;;;;;;;0.00;0.00;;;18.90;99.90;;;;;;5074228;28;20027;-87
2023/07/03 08:27:17;;;;;;;0.00;0.00;;;;;;;;;;5072114;28;20028;-88
2023/07/03 08:29:42;;;;;;;0.00;0.00;;;19.10;99.90;;;;;;5073602;28;20020;-90
2023/07/03 08:32:10;;;;;;;0.00;0.00;;;19.20;99.90;;;;;;5072469;28;20105;-87
2023/07/03 08:34:36;;;;;;;0.00;0.00;;;19.30;99.90;;;;;;5074668;28;20027;-86
2023/07/03 08:37:02;;;;;;;0.00;0.00;;;19.50;99.90;;;;;;5066609;28;20020;-88
2023/07/03 08:39:28;;;;;;;0.00;0.00;;;;;;;;;;5061101;28;20508;-87
2023/07/03 08:42:51;;;;;;;0.00;0.00;;;19.50;99.90;;;;;;5070492;28;20024;-86
2023/07/03 08:45:18;;;;;;;0.00;0.00;;;19.50;99.90;;;;;;5009527;28;20598;-89
2023/07/03 08:47:46;;;;;;;0.00;0.00;;;19.60;99.90;;;;;;5057280;28;20032;-89
2023/07/03 08:50:16;;;;;;;0.00;0.00;;;19.40;99.90;;;;;;5070981;28;20020;-88
2023/07/03 08:52:57;;;;;;;0.00;0.00;;;19.90;99.90;;;;;;5056630;28;20020;-90
2023/07/03 08:55:27;;;;;;;0.00;0.00;;;19.20;99.90;;;;;;5070843;28;20048;-86
2023/07/03 08:57:52;;;;;;;0.00;0.00;;;19.30;99.90;;;;;;5072369;28;20440;-89
2023/07/03 09:00:20;;;;;;;0.00;0.00;;;19.20;99.90;;;;;;5070137;28;20021;-90
2023/07/03 09:03:05;;;;;;;0.00;0.00;;;18.80;99.90;;;;;;5072302;28;20016;-87
2023/07/03 09:06:05;;;;;;;0.00;0.00;;;18.80;99.90;;;;;;5103504;28;20455;-85
2023/07/03 09:08:57;;;;;;;0.00;0.00;;;18.20;99.90;;;;;;5087883;28;20103;-86
2023/07/03 09:11:27;;;;;;;0.00;0.00;;;18.10;99.90;;;;;;5069705;28;20024;-86
2023/07/03 09:13:54;;;;;;;0.00;0.00;;;17.70;99.90;;;;;;5071891;28;20020;-88
2023/07/03 09:16:22;;;;;;;0.00;0.00;;;17.90;99.90;;;;;;5069581;28;20032;-87
2023/07/03 09:18:57;;;;;;;0.00;0.00;;;17.50;99.90;;;;;;5089812;28;20024;-90
2023/07/03 09:21:24;;;;;;;0.00;0.00;;;18.10;99.90;;;;;;5069189;28;20103;-88
2023/07/03 09:24:13;;;;;;;0.00;0.00;;;18.20;99.90;;;;;;5071378;28;20016;-88
2023/07/03 09:26:46;;;;;;;0.00;0.00;;;18.50;99.90;;;;;;5104773;28;20024;-87
2023/07/03 09:29:12;;;;;;;0.00;0.00;;;18.40;99.90;;;;;;5069691;28;20020;-88
2023/07/03 09:31:38;;;;;;;0.00;0.00;;;;;;;;;;5070369;28;20088;-88
2023/07/03 09:34:03;;;;;;;0.00;0.00;;;19.00;99.90;;;;;;5070450;28;20114;-87
2023/07/03 09:36:32;;;;;;;0.00;0.00;;;18.80;99.90;;;;;;5069062;28;20060;-87
2023/07/03 09:39:04;;;;;;;0.00;0.00;;;18.70;99.90;;;;;;5070306;28;20505;-87
2023/07/03 09:41:33;;;;;;;0.00;0.00;;;18.60;99.90;;;;;;5100402;28;20031;-87
2023/07/03 09:43:59;;;;;;;0.00;0.00;;;;;;;;;;5070114;28;20020;-87
2023/07/03 09:46:29;;;;;;;0.00;0.00;;;18.10;99.90;;;;;;5067765;28;20020;-87
2023/07/03 09:48:54;;;;;;;;;;;17.70;99.90;;;;;;5070830;28;20626;-87
2023/07/03 09:51:20;;;;;;;0.00;0.00;;;;;;;;;;5067485;28;19963;-87
2023/07/03 09:53:46;;;;;;;0.00;0.00;;;;;;;;;;5070479;28;20055;-88
2023/07/03 09:56:16;;;;;;;0.00;0.00;;;17.80;99.90;;;;;;5058695;28;20020;-88
2023/07/03 09:58:47;;;;;;;;;;;18.00;99.90;;;;;;5066695;28;20052;-87
2023/07/03 10:01:20;;;;;;;0.00;0.00;;;18.20;99.90;;;;;;5080078;28;19912;-87
2023/07/03 10:03:45;;;;;;;0.00;0.00;;;17.90;99.90;;;;;;5089706;28;20547;-86
2023/07/03 10:06:17;;;;;;;0.00;0.00;;;19.10;99.90;;;;;;5062825;28;20067;-87
2023/07/03 10:08:46;;;;;;;0.00;0.00;;;19.10;99.90;;;;;;5069359;28;20027;-87
2023/07/03 10:11:13;;;;;;;0.00;0.00;;;;;;;;;;5067498;28;20452;-87
2023/07/03 10:13:46;;;;;;;0.00;0.00;;;20.30;99.90;;;;;;5068334;28;20028;-87
2023/07/03 10:16:14;;;;;;;0.00;0.00;;;20.30;99.90;;;;;;5067379;28;20024;-88
2023/07/03 10:18:46;;;;;;;0.00;0.00;;;20.40;99.90;;;;;;5065120;28;20035;-87
2023/07/03 10:21:20;;;;;;;0.00;0.00;;;20.40;99.90;;;;;;5080061;28;20016;-88
2023/07/03 10:23:47;;;;;;;0.00;0.00;;;20.50;99.90;;;;;;5078667;28;20104;-88
2023/07/03 10:26:30;;;;;;;0.00;0.00;;;20.00;99.90;;;;;;5062121;28;20012;-88
2023/07/03 10:29:19;;;;;;;0.00;0.00;;;20.40;99.90;;;;;;5060560;28;20073;-89
2023/07/03 10:31:56;;;;;;;0.00;0.00;;;20.60;99.90;;;;;;5067741;28;20016;-88
2023/07/03 10:34:40;;;;;;;0.00;0.00;;;20.80;97.20;;;;;;5064956;28;20028;-88
2023/07/03 10:37:07;;;;;;;0.00;0.00;;;20.80;96.70;;;;;;5061151;28;20032;-87
2023/07/03 10:39:54;;;;;;;0.00;0.00;;;20.80;96.70;;;;;;5080496;28;20035;-88
2023/07/03 10:42:26;;;;;;;0.00;0.00;;;20.80;95.90;;;;;;5062712;28;20441;-87
2023/07/03 10:44:57;;;;;;;0.00;0.00;;;20.70;95.00;;;;;;5091968;28;20020;-87
2023/07/03 10:47:30;;;;;;;0.00;0.00;;;20.80;95.80;;;;;;5065059;28;20017;-90
2023/07/03 10:49:57;;;;;;;0.00;0.00;;;20.80;96.30;;;;;;5074805;28;20433;-87
2023/07/03 10:52:45;;;;;;;0.00;0.00;;;21.00;97.30;;;;;;5063697;28;20016;-87
2023/07/03 10:55:28;;;;;;;0.00;0.00;;;21.20;92.30;;;;;;5061800;28;20016;-87
2023/07/03 10:58:02;;;;;;;0.00;0.00;;;20.80;93.40;;;;;;5058754;28;20035;-89
2023/07/03 11:00:41;;;;;;;0.00;0.00;;;20.80;93.40;;;;;;5052818;28;20023;-90
2023/07/03 11:03:23;;;;;;;0.00;0.00;;;20.30;93.50;;;;;;5067332;28;20478;-88
2023/07/03 11:06:04;;;;;;;0.00;0.00;;;20.00;94.50;;;;;;5084967;28;20028;-87
2023/07/03 11:08:55;;;;;;;0.00;0.00;;;19.70;94.50;;;;;;5063159;28;20372;-88
2023/07/03 11:11:40;;;;;;;0.00;0.00;;;19.90;97.60;;;;;;5064127;28;20032;-90
2023/07/03 11:14:33;;;;;;;0.00;0.00;;;21.00;94.40;;;;;;5059035;28;20044;-89
2023/07/03 11:17:33;;;;;;;0.00;0.00;;;21.00;94.90;;;;;;5075633;28;20511;-87
2023/07/03 11:20:11;;;;;;;0.00;0.00;;;21.10;93.70;;;;;;5057481;28;20070;-85
2023/07/03 11:22:53;;;;;;;0.00;0.00;;;21.10;95.80;;;;;;5062590;28;20319;-87
2023/07/03 11:25:31;;;;;;;0.00;0.00;;;21.10;94.30;;;;;;5063914;28;20020;-86
2023/07/03 11:28:11;;;;;;;0.00;0.00;;;20.80;94.30;;;;;;5057497;28;20079;-86
2023/07/03 11:30:42;;;;;;;0.00;0.00;;;21.30;96.10;;;;;;5079843;28;20116;-87
2023/07/03 11:33:08;;;;;;;0.00;0.00;;;21.70;96.30;;;;;;5064750;28;20016;-88
2023/07/03 11:35:34;;;;;;;0.00;0.00;;;21.60;96.40;;;;;;5063269;28;20039;-88
2023/07/03 11:38:05;;;;;;;0.00;0.00;;;21.70;95.30;;;;;;5066019;28;20470;-87
2023/07/03 11:40:53;;;;;;;0.00;0.00;;;21.70;93.90;;;;;;5092788;28;20048;-88
2023/07/03 11:43:28;;;;;;;0.00;0.00;;;21.30;94.40;;;;;;5063690;28;20008;-87
2023/07/03 11:45:57;;;;;;;0.00;0.00;;;21.10;95.50;;;;;;5065842;28;20543;-87
2023/07/03 11:48:39;;;;;;;0.00;0.00;;;21.10;95.40;;;;;;5062515;28;20021;-87
2023/07/03 11:51:05;;;;;;;0.00;0.00;;;;;;;;;;5059282;28;20024;-87
2023/07/03 11:53:36;;;;;;;0.00;0.00;;;20.80;96.60;;;;;;5064954;28;20082;-88
2023/07/03 11:56:04;;;;;;;0.00;0.00;;;20.90;98.10;;;;;;5062025;28;20026;-86
2023/07/03 11:58:33;;;;;;;0.00;0.00;;;20.80;95.50;;;;;;5079929;28;20402;-87
2023/07/03 12:01:20;;;;;;;0.00;0.00;;;20.70;95.80;;;;;;5058470;28;20052;-87
2023/07/03 12:04:04;;;;;;;0.00;0.00;;;20.70;96.90;;;;;;5096040;28;20025;-87
2023/07/03 12:06:39;;;;;;;0.00;0.00;;;21.10;94.50;;;;;;5076624;28;20016;-87
2023/07/03 12:09:25;;;;;;;0.00;0.00;;;21.00;95.00;;;;;;5061877;28;20066;-88
2023/07/03 12:11:59;;;;;;;0.00;0.00;;;21.20;94.00;;;;;;5063806;28;20032;-88
2023/07/03 12:14:40;;;;;;;0.00;0.00;;;21.20;94.40;;;;;;5061612;28;20033;-89
2023/07/03 12:17:24;;;;;;;0.00;0.00;;;21.30;95.50;;;;;;5062684;28;20016;-88
2023/07/03 12:19:54;;;;;;;0.00;0.00;;;21.10;93.60;;;;;;5064069;28;20028;-88
2023/07/03 12:22:25;;;;;;;0.00;0.00;;;21.00;94.10;;;;;;5068391;28;20029;-88
2023/07/03 12:25:11;;;;;;;0.00;0.00;;;20.90;93.10;;;;;;5067073;28;20060;-88
2023/07/03 12:27:38;;;;;;;0.00;0.00;;;21.00;96.00;;;;;;5095948;28;20031;-89
2023/07/03 12:30:05;;;;;;;0.00;0.00;;;22.60;96.60;;;;;;5086051;28;20020;-87
2023/07/03 12:32:34;;;;;;;0.00;0.00;;;21.20;96.10;;;;;;5064609;28;20379;-89
2023/07/03 12:50:31;;;;;;;0.00;0.00;;;21.30;95.40;;;;;;5083193;28;20059;-92
2023/07/03 12:52:58;;;;;;;0.00;0.00;;;21.60;95.40;;;;;;5086796;28;20141;-91
2023/07/03 12:55:27;;;;;;;0.00;0.00;;;21.70;93.60;;;;;;5086136;28;20493;-92
2023/07/03 12:57:54;;;;;;;0.00;0.00;;;;;;;;;;5084461;28;20580;-91
2023/07/03 13:00:31;;;;;;;0.00;0.00;;;21.70;93.00;;;;;;5083171;28;20020;-91
2023/07/03 13:03:03;;;;;;;0.00;0.00;;;21.90;95.30;;;;;;5084688;28;20069;-92
2023/07/03 13:05:35;;;;;;;0.00;0.00;;;22.10;95.50;;;;;;5076980;28;20170;-91
2023/07/03 13:08:10;;;;;;;0.00;0.00;;;22.30;93.00;;;;;;5084415;28;20024;-91
2023/07/03 13:10:36;;;;;;;0.00;0.00;;;;;;;;;;5077264;28;20028;-92
2023/07/03 13:13:03;;;;;;;0.00;0.00;;;22.00;92.90;;;;;;5083939;28;20035;-91
2023/07/03 13:15:35;;;;;;;0.00;0.00;;;22.10;93.80;;;;;;5086316;28;20073;-92
2023/07/03 13:18:07;;;;;;;0.00;0.00;;;21.90;93.20;;;;;;5088095;28;20027;-92
2023/07/03 13:20:33;;;;;;;0.00;0.00;;;22.10;93.10;;;;;;5077038;28;20463;-92
2023/07/03 13:23:05;;;;;;;0.00;0.00;;;22.00;95.40;;;;;;5082935;28;20491;-91
2023/07/03 13:25:33;;;;;;;0.00;0.00;;;22.20;93.70;;;;;;5076541;28;20066;-92
2023/07/03 13:28:01;;;;;;;0.00;0.00;;;22.60;91.40;;;;;;5090110;28;20390;-91
2023/07/03 13:30:34;;;;;;;0.00;0.00;;;22.40;92.30;;;;;;5075447;28;20024;-92
2023/07/03 13:33:03;;;;;;;0.00;0.00;;;21.90;92.50;;;;;;5082940;28;20033;-92
2023/07/03 13:35:52;;;;;;;0.00;0.00;;;21.40;94.40;;;;;;5076012;28;20024;-92
2023/07/03 13:38:26;;;;;;;0.00;0.00;;;20.70;94.30;;;;;;5081587;28;20525;-90
2023/07/03 13:40:53;;;;;;;0.00;0.00;;;20.30;96.40;;;;;;5080641;28;20029;-91
2023/07/03 13:43:25;;;;;;;0.00;0.00;;;19.90;96.00;;;;;;5084763;28;20020;-90
2023/07/03 13:45:52;;;;;;;0.00;0.00;;;19.70;95.90;;;;;;5084099;28;20059;-91
2023/07/03 13:48:18;;;;;;;0.00;0.00;;;;;;;;;;5081676;28;20043;-92
2023/07/03 13:50:44;;;;;;;0.00;0.00;;;;;;;;;;5081356;28;20402;-91
2023/07/03 13:53:10;;;;;;;0.00;0.00;;;;;;;;;;5083167;28;20079;-91